Fort Myers, FL

11:56 PM EDT on October 01, 2014 (GMT -0400)
Page | Change Station
CLOSE
Current Station
Airport
Location: Fort Myers,
Elevation: 16 ft
Nearby Weather Stations

Elev 16 ft 26.58 °N, 81.86 °W | Updated 1 hour ago

Clear
Clear
78 °F
Feels Like 78 °F
N
0
Wind Variable Wind from North

Today
High -- | Low -- °F
--% Chance of Precip.
Yesterday
High -- | Low -- °F
Precip. -- in
7:19 AM 7:13 PM
First Quarter, 54% visible
Pressure 29.99 in
Visibility 10.0 miles
Clouds Clear
Dew Point 75 °F
Humidity 90%
Rainfall 0.30 in
Snow Depth Not available.
UV 0 out of 12
Pollen 5.40 out of 12
Air Quality Not available.
Flu Activity Not available.
METAR KFMY 020253Z AUTO 00000KT 10SM CLR 26/24 A2998 RMK AO2 SLP154 T02560239 51018

More Conditions Fewer Conditions

Pressure 29.99 in
Visibility 10.0 miles
Clouds Clear
Dew Point 75 °F
Humidity 90%
Rainfall 0.30 in
Snow Depth Not available.
UV 0 out of 12
Pollen 5.40 out of 12
Air Quality Not available.
Flu Activity Not available.
METAR KFMY 020253Z AUTO 00000KT 10SM CLR 26/24 A2998 RMK AO2 SLP154 T02560239 51018

More Conditions Fewer Conditions

10-Day Weather Forecast

Almanac

Astronomy

Oct. 01, 2014 Rise Set
Actual Time 7:19 AM EDT 7:13 PM EDT
Civil Twilight 6:56 AM EDT 7:36 PM EDT
Nautical Twilight 6:29 AM EDT 8:03 PM EDT
Astronomical Twilight 6:03 AM EDT 8:30 PM EDT
Moon 1:56 PM EDT (10/1) 12:08 AM EDT (10/1)
Length of Visible Light 12h 40m
Length of Day
11h 53m
Tomorrow will be 1m 34s shorter.
First Quarter, 54% of the Moon is Illuminated
Today
First Quarter
Oct 8
Full
Oct 15
Last Quarter
Oct 23
New
Oct 30
First Quarter

Today's Extremes

State Highs State Lows

Community

WunderPhotos

Upload Photos

1,758,170 photos uploaded!

Nearby

Snow Depth

Station Depth Elevation
No new snow has been reported.

Earthquake Activity

City Distance Mag. Time & Date
No recent earthquake activity has been reported nearby.
Minimum magnitude displayed is 2.5.

Coastal Water Temperatures

Place Temperature
Fort Myers, FL 87.1 °F
Naples, FL 88.0 °F

Nearby Weather Stations